Larissa , Thessalia , Greece
39° 38' 00"N, 22° 25' 00"E, Elevation 263 ft.
Χειμερινή Time

Hourly observations for the last 48 hours

Date

Time

Temperature (°C) Humi-
dity
(%)
Wind
(kmph)
Pressure Rain (mm) Sun
(W/m2)
UV ET
(mm)
Air Dew 6 Hour 1 Hr 3 Hr 6 Hr Day
Alt
(in)
Sea
Level
(mb)
Max Min
30 14:00 13.1 1.1 14.8 8.5 44 W 17 G 30 29.68 1005.0 4.67 382 0.0 0.838
30 13:00 13.2 3.9 53 W 16 G 33 29.66 1004.5 4.67 67 0.0 0.610
30 12:00 13.8 4.1 52 SSE 3 G 8 29.67 1004.6 4.67 509 0.0 0.406
30 11:00 11.9 5.8 66 SW 4 G 8 29.65 1004.1 4.67 395 0.0 0.254
30 10:00 10.8 6.0 72 E 1 G 4 29.63 1003.5 4.67 314 0.0 0.152
30 09:00 8.7 5.4 80 N 0 G 8 29.61 1002.6 4.67 175 0.0 0.127
30 08:00 8.5 5.2 10.0 8.5 80 SW 5 G 9 29.58 1001.7 1.22 4.67 13 0.0 0.102
30 07:00 9.3 6.1 80 SSW 4 G 9 29.56 1001.0 4.67 0 0.0 0.076
30 06:00 9.3 6.1 80 SW 3 G 9 29.53 1000.2 4.67 0 0.0 0.051
30 05:00 9.2 6.6 84 W 7 G 12 29.52 999.9 1.22 4.67 0 0.0 0.025
30 04:00 9.6 6.7 82 WNW 5 G 14 29.49 998.7 0.61 4.67 0 0.0 0.000
30 03:00 9.6 7.7 88 SSW 6 G 9 29.48 998.2 0.61 4.06 0 0.0 0.000
30 02:00 9.4 8.2 11.1 9.3 92 WNW 13 G 37 29.47 998.1 1.22 1.32 6.60 3.45 0 0.0 0.000
30 01:00 9.3 7.9 91 ENE 4 G 6 29.49 998.7 2.24 0 0.0 0.000
30 00:00 9.3 7.9 91 E 4 G 9 29.52 999.6 1.22 10.97 0 0.0 1.600
29 23:00 10.2 7.9 86 N 2 G 4 29.54 1000.5 4.27 5.28 11.38 0 0.0 1.575
29 22:00 11.1 7.2 77 NNE 2 G 4 29.56 1000.9 0.61 7.11 0 0.0 1.549
29 21:00 11.0 6.5 74 NE 3 G 6 29.57 1001.3 0.41 6.50 0 0.0 1.524
29 20:00 10.7 7.0 16.8 10.7 78 NE 4 G 6 29.58 1001.8 0.20 0.81 1.02 6.10 0 0.0 1.499
29 19:00 11.2 7.1 76 ESE 0 G 4 29.58 1001.6 0.61 5.89 0 0.0 1.473
29 18:00 12.2 6.3 67 NNE 5 G 12 29.57 1001.3 5.28 0 0.0 1.422
29 17:00 12.4 5.1 61 WNW 9 G 27 29.53 1000.2 0.20 0.20 5.28 0 0.0 1.372
29 16:00 14.0 6.4 60 WNW 5 G 16 29.51 999.5 5.08 28 0.0 1.245
29 15:00 15.4 7.4 59 W 7 G 19 29.49 998.7 5.08 76 0.0 1.067
29 14:00 16.8 7.2 17.7 12.6 53 W 16 G 30 29.47 998.1 5.08 388 0.0 0.838
29 13:00 17.7 8.8 56 SW 9 G 22 29.45 997.3 5.08 466 0.0 0.610
29 12:00 16.5 9.4 63 SW 8 G 19 29.46 997.7 5.08 242 0.0 0.432
29 11:00 16.7 8.9 60 SW 10 G 22 29.44 997.1 5.08 401 0.0 0.229
29 10:00 16.2 8.6 61 WSW 12 G 27 29.44 996.9 5.08 304 0.0 0.076
29 09:00 13.9 9.2 73 SSW 10 G 27 29.43 996.7 5.08 169 0.0 0.025
29 08:00 12.6 10.6 13.6 12.1 88 SSW 5 G 11 29.40 995.7 1.02 1.02 5.08 14 0.0 0.025
29 07:00 12.2 11.4 95 S 2 G 4 29.39 995.4 1.02 5.08 0 0.0 0.025
29 06:00 12.1 11.3 95 W 3 G 11 29.37 994.5 4.06 0 0.0 0.025
29 05:00 12.1 11.3 95 NNW 1 G 3 29.35 993.9 4.06 0 0.0 0.025
29 04:00 12.8 12.0 95 W 2 G 6 29.37 994.5 4.06 0 0.0 0.025
29 03:00 13.2 12.3 94 ESE 1 G 3 29.38 995.0 4.06 0 0.0 0.025
29 02:00 13.6 12.3 14.6 13.4 92 NNW 0 G 3 29.38 995.1 4.06 2.44 5.49 4.06 0 0.0 0.025
29 01:00 14.4 11.9 85 N 5 G 12 29.40 995.6 0.00 0 0.0 0.000
29 00:00 14.4 11.8 84 N 9 G 22 29.43 996.6 6.25 0 0.0 1.016
28 23:00 13.6 12.3 92 N 4 G 9 29.48 998.2 0.41 3.05 6.50 0 0.0 1.016
28 22:00 13.6 12.3 92 N 3 G 8 29.52 999.7 1.02 6.10 0 0.0 1.016
28 21:00 14.4 12.3 87 NNE 2 G 3 29.55 1000.6 1.63 5.08 0 0.0 0.991
28 20:00 14.3 11.8 19.6 14.2 85 NNE 4 G 19 29.54 1000.4 0.41 2.24 3.25 3.45 0 0.0 0.965
28 19:00 14.6 12.9 90 N 2 G 4 29.58 1001.8 1.22 3.05 0 0.0 0.965
28 18:00 15.1 12.4 84 N 2 G 8 29.57 1001.2 0.61 1.83 0 0.0 0.940
28 17:00 16.5 12.3 76 N 3 G 11 29.59 1002.0 1.02 1.02 1.22 0 0.0 0.914
28 16:00 19.1 11.4 61 N 2 G 4 29.57 1001.5 0.20 14 0.0 0.864
28 15:00 19.4 9.6 53 N 0 G 3 29.59 1002.2 0.20 275 0.0 0.737

Data generated by WxSolution Version 1.8.4.2, Build 2009.03.29.